Time;durP1;ratioP1;P1;durP2;ratioP2;P2;SDS_P1;SDS_P2;PMS_P1;PMS_P2;Temp;Humidity;BMP_temperature;BMP_pressure;BME280_temperature;BME280_humidity;BME280_pressure;Samples;Min_cycle;Max_cycle;Signal;HPM_P1;HPM_P2
2021/01/16 00:00:36;;;;;;;;;;;;;;;-5.25;89.66;98385.06;4963494;28;19974;-83
2021/01/16 00:03:04;;;;;;;;;;;;;;;-5.15;89.67;98388.28;4963833;28;19903;-81
2021/01/16 00:05:29;;;;;;;;;;;;;;;-5.01;89.39;98389.28;4947418;28;19934;-80
2021/01/16 00:08:02;;;;;;;;;;;;;;;-5.11;89.83;98383.41;4963642;28;19906;-85
2021/01/16 00:10:28;;;;;;;;;;;;;;;-5.14;89.79;98383.78;4944031;29;19915;-88
2021/01/16 00:12:53;;;;;;;;;;;;;;;-5.16;89.27;98394.63;4938332;29;19922;-84
2021/01/16 00:15:19;;;;;;;;;;;;;;;-5.28;89.95;98389.94;4938648;29;19977;-86
2021/01/16 00:17:44;;;;;;;;;;;;;;;-5.17;89.67;98393.00;4924521;29;19915;-87
2021/01/16 00:20:10;;;;;;;;;;;;;;;-5.20;90.17;98398.66;4941769;29;19958;-85
2021/01/16 00:22:46;;;;;;;;;;;;;;;-5.32;89.73;98399.31;4925196;29;19942;-88
2021/01/16 00:25:11;;;;;;;;;;;;;;;-5.35;89.42;98394.34;4941569;29;19899;-84
2021/01/16 00:27:37;;;;;;;;;;;;;;;-5.20;89.91;98393.31;4941354;29;19923;-86
2021/01/16 00:30:04;;;;;;;;;;;;;;;-5.34;89.07;98402.16;4941273;29;19915;-84
2021/01/16 00:32:30;;;;;;;;;;;;;;;-5.28;89.68;98400.59;4924949;29;19905;-86
2021/01/16 00:34:55;;;;;;;;;;;;;;;-5.48;90.02;98406.47;4925641;29;19958;-84
2021/01/16 00:37:21;;;;;;;;;;;;;;;-5.43;89.75;98416.59;4926266;29;19915;-85
2021/01/16 00:39:46;;;;;;;;;;;;;;;-5.47;89.64;98416.13;4937883;29;19934;-87
2021/01/16 00:42:12;;;;;;;;;;;;;;;-5.63;90.56;98410.97;4924443;29;19929;-86
2021/01/16 00:44:37;;;;;;;;;;;;;;;-5.54;90.75;98414.38;4942246;29;19903;-82
2021/01/16 00:47:03;;;;;;;;;;;;;;;-5.63;90.77;98405.63;4927046;29;19919;-89
2021/01/16 00:49:28;;;;;;;;;;;;;;;-5.61;91.13;98414.28;4926027;29;19903;-87
2021/01/16 00:51:54;;;;;;;;;;;;;;;-5.67;90.87;98411.53;4941881;29;19907;-88
2021/01/16 00:54:19;;;;;;;;;;;;;;;-5.41;91.48;98404.72;4939991;29;19907;-85
2021/01/16 00:56:44;;;;;;;;;;;;;;;-5.53;90.84;98414.19;4941258;29;19887;-86
2021/01/16 00:59:10;;;;;;;;;;;;;;;-5.59;90.39;98412.25;4941528;29;19915;-87
2021/01/16 01:01:39;;;;;;;;;;;;;;;-5.44;90.54;98414.94;4924117;29;19954;-84
2021/01/16 01:04:04;;;;;;;;;;;;;;;-5.51;90.47;98406.00;4924336;29;19887;-85
2021/01/16 01:06:30;;;;;;;;;;;;;;;-5.66;90.53;98414.00;4925037;29;19921;-85
2021/01/16 01:08:55;;;;;;;;;;;;;;;-5.69;90.54;98419.69;4940778;29;19962;-85
2021/01/16 01:11:21;;;;;;;;;;;;;;;-5.73;90.22;98417.56;4923411;29;19922;-83
2021/01/16 01:13:50;;;;;;;;;;;;;;;-5.61;89.99;98416.97;4939696;29;19926;-85
2021/01/16 01:16:15;;;;;;;;;;;;;;;-5.69;90.38;98414.34;4940324;29;19915;-86
2021/01/16 01:18:42;;;;;;;;;;;;;;;-5.64;89.66;98417.28;4924355;29;19903;-88
2021/01/16 01:21:07;;;;;;;;;;;;;;;-5.81;89.92;98428.28;4925250;29;19946;-89
2021/01/16 01:23:43;;;;;;;;;;;;;;;-5.77;90.06;98425.09;4941963;29;19915;-86
2021/01/16 01:26:14;;;;;;;;;;;;;;;-5.97;89.72;98423.97;4940919;29;19903;-87
2021/01/16 01:29:03;;;;;;;;;;;;;;;-5.82;90.30;98421.28;4927074;29;19926;-88
2021/01/16 01:31:48;;;;;;;;;;;;;;;-5.75;89.71;98414.25;4942151;29;19911;-87
2021/01/16 01:34:16;;;;;;;;;;;;;;;-5.72;89.97;98412.06;4942069;29;19922;-88
2021/01/16 01:37:24;;;;;;;;;;;;;;;-5.92;89.91;98423.44;4927901;29;19919;-86
2021/01/16 01:39:50;;;;;;;;;;;;;;;-5.72;89.87;98412.06;4940390;29;19919;-87
2021/01/16 01:42:20;;;;;;;;;;;;;;;-5.85;89.79;98409.19;4914113;29;19957;-86
2021/01/16 01:44:48;;;;;;;;;;;;;;;-5.89;90.14;98410.59;4940141;29;19957;-86
2021/01/16 01:47:15;;;;;;;;;;;;;;;-5.91;89.78;98417.91;4919296;29;21404;-86
2021/01/16 01:49:41;;;;;;;;;;;;;;;-5.84;89.87;98410.84;4917421;29;19930;-84
2021/01/16 01:52:08;;;;;;;;;;;;;;;-5.96;89.59;98417.63;4902108;29;19919;-86
2021/01/16 01:54:36;;;;;;;;;;;;;;;-5.91;90.27;98417.91;4915072;29;20371;-86
2021/01/16 01:57:03;;;;;;;;;;;;;;;-6.06;90.58;98406.41;4899555;29;19959;-86
2021/01/16 01:59:37;;;;;;;;;;;;;;;-5.98;90.33;98411.66;4916144;29;19944;-84
2021/01/16 02:02:04;;;;;;;;;;;;;;;-5.92;90.03;98416.28;4919030;29;19903;-87
2021/01/16 02:04:44;;;;;;;;;;;;;;;-6.11;90.32;98411.44;4957086;29;19919;-86
2021/01/16 02:07:26;;;;;;;;;;;;;;;-6.24;91.00;98419.19;4955451;29;19947;-88
2021/01/16 02:09:53;;;;;;;;;;;;;;;-6.12;90.38;98423.94;4974478;29;19938;-86
2021/01/16 02:12:20;;;;;;;;;;;;;;;-6.17;90.38;98430.81;4975863;29;19921;-84
2021/01/16 02:15:02;;;;;;;;;;;;;;;-6.15;90.81;98434.09;4959064;29;19922;-86
2021/01/16 02:17:31;;;;;;;;;;;;;;;-6.16;90.64;98427.13;4941282;29;20009;-87
2021/01/16 02:20:00;;;;;;;;;;;;;;;-6.13;91.11;98418.78;4956672;29;19914;-86
2021/01/16 02:22:30;;;;;;;;;;;;;;;-6.26;91.46;98422.03;4972485;29;19909;-86
2021/01/16 02:25:22;;;;;;;;;;;;;;;-6.13;91.16;98416.09;4973611;29;19925;-85
2021/01/16 02:27:52;;;;;;;;;;;;;;;-5.97;90.98;98410.66;4969661;29;19911;-86
2021/01/16 02:30:19;;;;;;;;;;;;;;;-5.91;90.45;98412.59;4974111;29;19918;-87
2021/01/16 02:32:47;;;;;;;;;;;;;;;-6.12;90.18;98404.47;4957650;29;19938;-87
2021/01/16 02:35:14;;;;;;;;;;;;;;;-6.42;91.03;98410.69;4956934;29;19925;-84
2021/01/16 02:37:54;;;;;;;;;;;;;;;-6.46;91.68;98414.69;4940239;29;19938;-85
2021/01/16 02:40:22;;;;;;;;;;;;;;;-6.33;91.83;98414.94;4957662;29;19942;-86
2021/01/16 02:42:47;;;;;;;;;;;;;;;-6.39;91.67;98423.63;4955510;29;19914;-85
2021/01/16 02:45:20;;;;;;;;;;;;;;;-6.42;91.41;98418.66;4954494;29;19921;-86
2021/01/16 02:47:48;;;;;;;;;;;;;;;-6.34;91.22;98411.47;4955796;29;19982;-85
2021/01/16 02:50:17;;;;;;;;;;;;;;;-6.30;91.20;98419.91;4954641;29;19914;-86
2021/01/16 02:52:46;;;;;;;;;;;;;;;-6.34;90.68;98413.28;4954325;29;19924;-87
2021/01/16 02:55:12;;;;;;;;;;;;;;;-6.40;90.56;98424.63;4953446;29;19925;-88
2021/01/16 02:57:38;;;;;;;;;;;;;;;-6.42;90.96;98432.78;4938262;29;20279;-85
2021/01/16 03:00:08;;;;;;;;;;;;;;;-6.34;91.21;98426.59;4928832;29;19919;-84
2021/01/16 03:02:33;;;;;;;;;;;;;;;-6.41;90.71;98429.13;4947401;29;19914;-86
2021/01/16 03:04:58;;;;;;;;;;;;;;;-6.39;90.81;98442.25;4952286;29;19957;-87
2021/01/16 03:07:30;;;;;;;;;;;;;;;-6.40;90.85;98432.63;4972645;29;19898;-87
2021/01/16 03:10:08;;;;;;;;;;;;;;;-6.34;91.02;98434.56;4962867;29;19906;-86
2021/01/16 03:12:51;;;;;;;;;;;;;;;-6.55;90.85;98433.34;4964421;28;19974;-88
2021/01/16 03:15:42;;;;;;;;;;;;;;;-6.46;91.37;98442.13;4979691;28;19914;-88
2021/01/16 03:18:08;;;;;;;;;;;;;;;-6.52;91.34;98438.34;4963160;28;19902;-86
2021/01/16 03:21:03;;;;;;;;;;;;;;;-6.39;91.26;98443.06;4964230;28;19902;-88
2021/01/16 03:23:32;;;;;;;;;;;;;;;-6.28;90.34;98445.34;4975226;29;19914;-87
2021/01/16 03:25:57;;;;;;;;;;;;;;;-6.39;90.64;98439.59;4943831;29;19918;-88
2021/01/16 03:28:22;;;;;;;;;;;;;;;-6.30;90.60;98438.53;4945747;29;19941;-87
2021/01/16 03:30:53;;;;;;;;;;;;;;;-6.23;90.42;98442.13;4977493;29;19930;-86
2021/01/16 03:33:30;;;;;;;;;;;;;;;-6.40;90.42;98443.25;4944829;28;19903;-82
2021/01/16 03:36:06;;;;;;;;;;;;;;;-6.42;90.34;98446.06;4955956;28;19918;-85
2021/01/16 03:41:34;;;;;;;;;;;;;;;-6.71;91.03;98462.72;4963181;28;19921;-81
2021/01/16 03:43:59;;;;;;;;;;;;;;;-6.73;90.57;98459.38;4962602;28;19907;-80
2021/01/16 03:46:25;;;;;;;;;;;;;;;-6.71;90.91;98456.56;4963136;28;19946;-80
2021/01/16 03:48:50;;;;;;;;;;;;;;;-6.57;91.22;98450.50;4979767;28;19902;-80
2021/01/16 03:51:15;;;;;;;;;;;;;;;-6.56;90.92;98460.97;4963297;28;19941;-80
2021/01/16 03:53:40;;;;;;;;;;;;;;;-6.67;90.77;98474.66;4963503;28;19910;-79
2021/01/16 03:56:06;;;;;;;;;;;;;;;-6.95;91.50;98465.47;4963449;28;19934;-80
2021/01/16 03:58:31;;;;;;;;;;;;;;;-6.92;92.09;98462.47;4963125;28;19903;-79
2021/01/16 04:00:56;;;;;;;;;;;;;;;-6.90;91.64;98460.47;4962982;28;19940;-80
2021/01/16 04:03:22;;;;;;;;;;;;;;;-7.08;91.92;98473.19;4979730;28;19926;-79
2021/01/16 04:05:47;;;;;;;;;;;;;;;-7.08;92.25;98481.97;4963075;28;19930;-80
2021/01/16 04:08:12;;;;;;;;;;;;;;;-7.03;92.02;98488.59;4979521;28;19926;-79
2021/01/16 04:10:38;;;;;;;;;;;;;;;-6.89;91.65;98479.94;4963217;28;19902;-81
2021/01/16 04:13:03;;;;;;;;;;;;;;;-7.03;91.80;98486.78;4979337;28;19922;-80
2021/01/16 04:15:28;;;;;;;;;;;;;;;-6.84;92.20;98481.06;4979474;28;19909;-80
2021/01/16 04:17:53;;;;;;;;;;;;;;;-6.79;92.02;98478.69;4963082;28;19945;-80
2021/01/16 04:20:19;;;;;;;;;;;;;;;-6.77;91.35;98486.50;4962898;28;19903;-79
2021/01/16 04:22:44;;;;;;;;;;;;;;;-6.80;91.44;98485.03;4963550;28;19922;-79
2021/01/16 04:25:09;;;;;;;;;;;;;;;-6.91;92.16;98487.22;4979261;28;19925;-80
2021/01/16 04:27:35;;;;;;;;;;;;;;;-6.80;91.99;98495.66;4962896;28;19903;-80
2021/01/16 04:30:01;;;;;;;;;;;;;;;-6.81;91.52;98501.16;4981962;28;19907;-79
2021/01/16 04:32:26;;;;;;;;;;;;;;;-6.82;92.30;98497.66;4966548;28;19903;-81
2021/01/16 04:34:52;;;;;;;;;;;;;;;-6.91;92.34;98490.72;4983043;28;19918;-81
2021/01/16 04:37:17;;;;;;;;;;;;;;;-6.88;92.23;98495.69;4966365;28;19926;-80
2021/01/16 04:39:42;;;;;;;;;;;;;;;-6.78;91.96;98480.38;4982773;28;19903;-81
2021/01/16 04:42:08;;;;;;;;;;;;;;;-6.90;92.71;98491.53;4964962;28;20632;-85
2021/01/16 04:44:35;;;;;;;;;;;;;;;-6.68;92.33;98481.00;4965788;28;19903;-80
2021/01/16 04:47:02;;;;;;;;;;;;;;;-6.75;92.11;98477.34;4966286;28;19925;-85
2021/01/16 04:49:27;;;;;;;;;;;;;;;-6.46;91.24;98484.69;4966176;28;19927;-81
2021/01/16 04:51:52;;;;;;;;;;;;;;;-6.44;90.51;98503.13;4982273;28;19903;-84
2021/01/16 04:54:18;;;;;;;;;;;;;;;-6.89;91.31;98507.31;4965754;28;19902;-80
2021/01/16 04:56:45;;;;;;;;;;;;;;;-6.80;92.15;98506.31;4982512;28;19903;-81
2021/01/16 04:59:11;;;;;;;;;;;;;;;-6.90;91.81;98503.00;4966067;28;19902;-80
2021/01/16 05:01:36;;;;;;;;;;;;;;;-7.02;92.01;98507.03;4965251;28;19910;-81
2021/01/16 05:04:02;;;;;;;;;;;;;;;-6.93;91.93;98511.34;4965286;28;19946;-83
2021/01/16 05:06:28;;;;;;;;;;;;;;;-6.69;91.35;98511.22;4966120;28;19902;-80
2021/01/16 05:08:54;;;;;;;;;;;;;;;-6.82;91.08;98515.44;4965827;28;19965;-80
2021/01/16 05:11:25;;;;;;;;;;;;;;;-6.80;91.36;98506.31;4965650;28;19907;-81
2021/01/16 05:13:54;;;;;;;;;;;;;;;-6.85;91.59;98505.97;4965766;28;19903;-81
2021/01/16 05:16:24;;;;;;;;;;;;;;;-6.73;90.92;98506.41;4982443;28;19903;-80
2021/01/16 05:18:50;;;;;;;;;;;;;;;-6.84;91.34;98512.97;4982239;28;19925;-79
2021/01/16 05:21:17;;;;;;;;;;;;;;;-6.90;92.23;98510.97;4965230;28;19937;-84
2021/01/16 05:23:44;;;;;;;;;;;;;;;-7.02;92.18;98512.34;4964876;28;19894;-82
2021/01/16 05:26:09;;;;;;;;;;;;;;;-6.99;92.60;98514.69;4981957;28;19913;-81
2021/01/16 05:28:35;;;;;;;;;;;;;;;-6.99;92.16;98517.34;4965302;28;19965;-80
2021/01/16 05:31:01;;;;;;;;;;;;;;;-6.86;92.20;98514.13;4965587;28;19903;-80
2021/01/16 05:33:28;;;;;;;;;;;;;;;-6.80;91.72;98516.94;4981931;28;19936;-80
2021/01/16 05:35:54;;;;;;;;;;;;;;;-6.82;91.30;98512.75;4981683;28;19917;-81
2021/01/16 05:38:45;;;;;;;;;;;;;;;-6.74;91.49;98513.59;4981936;28;19902;-80
2021/01/16 05:44:21;;;;;;;;;;;;;;;-6.76;91.27;98525.38;4980868;28;19990;-84
2021/01/16 05:46:48;;;;;;;;;;;;;;;-6.91;91.62;98522.59;4964914;28;19983;-84
2021/01/16 05:49:17;;;;;;;;;;;;;;;-6.69;91.37;98515.72;4981674;28;19909;-82
2021/01/16 05:51:43;;;;;;;;;;;;;;;-6.75;91.02;98517.25;4981579;28;19909;-81
2021/01/16 05:54:10;;;;;;;;;;;;;;;-6.78;91.08;98512.25;4965261;28;19926;-84
2021/01/16 05:56:37;;;;;;;;;;;;;;;-6.94;91.10;98512.31;4964826;28;19926;-81
2021/01/16 05:59:04;;;;;;;;;;;;;;;-7.00;91.85;98518.31;4964380;28;19902;-82
2021/01/16 06:01:35;;;;;;;;;;;;;;;-6.88;91.13;98522.25;4980826;28;19966;-81
2021/01/16 06:04:00;;;;;;;;;;;;;;;-6.82;90.93;98515.44;4980615;28;19903;-81
2021/01/16 06:06:26;;;;;;;;;;;;;;;-6.88;90.87;98521.44;4964176;28;19904;-80
2021/01/16 06:08:52;;;;;;;;;;;;;;;-6.94;90.86;98520.28;4981273;28;19991;-80
2021/01/16 06:11:18;;;;;;;;;;;;;;;-6.89;91.43;98531.22;4980839;28;19910;-84
2021/01/16 06:13:43;;;;;;;;;;;;;;;-7.00;91.06;98539.59;4980825;28;19989;-80
2021/01/16 06:16:12;;;;;;;;;;;;;;;-7.01;91.35;98540.56;4964645;28;19910;-80
2021/01/16 06:18:42;;;;;;;;;;;;;;;-6.96;91.71;98546.22;4964565;28;19906;-80
2021/01/16 06:21:08;;;;;;;;;;;;;;;-7.20;91.97;98547.09;4980546;28;19926;-84
2021/01/16 06:23:38;;;;;;;;;;;;;;;-7.24;92.75;98542.28;4964414;28;19902;-80
2021/01/16 06:26:07;;;;;;;;;;;;;;;-7.20;92.17;98554.22;4963649;28;19922;-83
2021/01/16 06:28:39;;;;;;;;;;;;;;;-7.18;91.79;98562.88;4981111;28;19903;-80
2021/01/16 06:31:20;;;;;;;;;;;;;;;-7.02;91.39;98554.03;4980830;28;19918;-80
2021/01/16 06:33:53;;;;;;;;;;;;;;;-7.02;91.45;98549.56;4964265;28;19909;-82
2021/01/16 06:36:19;;;;;;;;;;;;;;;-6.84;90.57;98550.16;4964287;28;19903;-79
2021/01/16 06:38:55;;;;;;;;;;;;;;;-7.06;90.78;98559.69;4980640;28;19903;-80
2021/01/16 06:41:26;;;;;;;;;;;;;;;-7.25;91.56;98548.59;4980609;28;19917;-80
2021/01/16 06:43:52;;;;;;;;;;;;;;;-7.03;91.81;98553.22;4979569;28;19982;-84
2021/01/16 06:46:18;;;;;;;;;;;;;;;-7.25;91.46;98551.25;4962953;28;19910;-84
2021/01/16 06:48:44;;;;;;;;;;;;;;;-7.19;91.70;98555.91;4962837;28;19902;-83
2021/01/16 06:51:11;;;;;;;;;;;;;;;-7.12;91.04;98556.88;4963095;28;19909;-82
2021/01/16 06:53:37;;;;;;;;;;;;;;;-7.09;91.24;98568.00;4964057;28;19909;-81
2021/01/16 06:56:06;;;;;;;;;;;;;;;-7.03;91.28;98566.50;4963757;28;19914;-80
2021/01/16 06:58:39;;;;;;;;;;;;;;;-7.05;91.20;98571.16;4964007;28;19909;-80
2021/01/16 07:01:06;;;;;;;;;;;;;;;-6.77;90.56;98558.28;4963720;28;19926;-81
2021/01/16 07:03:34;;;;;;;;;;;;;;;-6.64;90.64;98562.06;4980437;28;19903;-80
2021/01/16 07:05:59;;;;;;;;;;;;;;;-6.55;89.52;98569.00;4980046;28;19969;-80
2021/01/16 07:08:28;;;;;;;;;;;;;;;-6.58;89.56;98579.19;4963563;28;19906;-80
2021/01/16 07:10:54;;;;;;;;;;;;;;;-6.58;89.43;98568.53;4980326;28;19926;-80
2021/01/16 07:13:20;;;;;;;;;;;;;;;-6.38;89.03;98576.91;4963440;28;19965;-79
2021/01/16 07:15:46;;;;;;;;;;;;;;;-6.43;88.58;98577.44;4963550;28;19902;-80
2021/01/16 07:18:11;;;;;;;;;;;;;;;-6.58;88.91;98582.63;4979882;28;19938;-80
2021/01/16 07:20:40;;;;;;;;;;;;;;;-6.27;88.62;98582.69;4980033;28;19910;-80
2021/01/16 07:23:05;;;;;;;;;;;;;;;-6.26;88.81;98576.34;4963466;28;19902;-82
2021/01/16 07:25:32;;;;;;;;;;;;;;;-5.95;88.33;98584.34;4977352;28;19926;-86
2021/01/16 07:28:09;;;;;;;;;;;;;;;-6.17;87.53;98590.47;4979902;28;19961;-84
2021/01/16 07:30:39;;;;;;;;;;;;;;;-6.42;88.23;98595.03;4978782;28;19909;-84
2021/01/16 07:33:05;;;;;;;;;;;;;;;-6.14;87.88;98590.13;4962061;28;19926;-84
2021/01/16 07:35:31;;;;;;;;;;;;;;;-6.25;86.92;98596.66;4963118;28;19902;-81
2021/01/16 07:37:56;;;;;;;;;;;;;;;-6.28;87.07;98593.50;4978065;28;19903;-84
2021/01/16 07:40:22;;;;;;;;;;;;;;;-6.15;87.35;98605.25;4961408;28;19902;-84
2021/01/16 07:42:49;;;;;;;;;;;;;;;-6.21;87.29;98599.78;4975591;29;19922;-84
2021/01/16 07:45:20;;;;;;;;;;;;;;;-6.23;87.57;98593.78;4931633;29;19930;-85
2021/01/16 07:47:52;;;;;;;;;;;;;;;-6.18;87.66;98588.81;4914347;29;19915;-85
2021/01/16 07:50:22;;;;;;;;;;;;;;;-6.01;87.91;98585.88;4918310;29;19989;-82
2021/01/16 07:52:52;;;;;;;;;;;;;;;-5.89;87.37;98586.31;4920942;29;19970;-85
2021/01/16 07:55:18;;;;;;;;;;;;;;;-5.77;87.23;98598.19;4949651;29;19947;-83
2021/01/16 07:57:47;;;;;;;;;;;;;;;-5.72;87.13;98600.31;4919265;29;19922;-82
2021/01/16 08:00:14;;;;;;;;;;;;;;;-5.87;87.19;98613.59;4924534;29;21458;-85
2021/01/16 08:02:50;;;;;;;;;;;;;;;-5.80;86.96;98619.84;4928694;29;19927;-86
2021/01/16 08:05:24;;;;;;;;;;;;;;;-5.98;87.01;98621.94;4923399;29;19986;-87
2021/01/16 08:08:08;;;;;;;;;;;;;;;-5.91;87.37;98632.75;4945738;29;19918;-84
2021/01/16 08:10:33;;;;;;;;;;;;;;;-5.84;87.21;98629.19;4920000;29;19917;-84
2021/01/16 08:13:00;;;;;;;;;;;;;;;-5.61;87.04;98630.06;4931612;29;19982;-83
2021/01/16 08:15:28;;;;;;;;;;;;;;;-5.34;86.71;98641.19;4926405;29;20351;-83
2021/01/16 08:17:54;;;;;;;;;;;;;;;-5.64;86.29;98634.91;4949276;28;19919;-85
2021/01/16 08:20:27;;;;;;;;;;;;;;;-5.51;86.26;98630.63;4931653;29;19930;-86
2021/01/16 08:22:55;;;;;;;;;;;;;;;-5.36;86.73;98632.53;4911308;29;19915;-84
2021/01/16 08:25:22;;;;;;;;;;;;;;;-5.37;86.40;98631.72;4912776;29;19923;-84
2021/01/16 08:27:49;;;;;;;;;;;;;;;-5.50;86.25;98642.94;4933445;29;19923;-86
2021/01/16 08:30:15;;;;;;;;;;;;;;;-5.36;85.67;98644.03;4930487;29;19942;-83
2021/01/16 08:33:00;;;;;;;;;;;;;;;-5.20;85.65;98651.88;4925508;29;20009;-84
2021/01/16 08:35:37;;;;;;;;;;;;;;;-5.13;84.32;98649.34;4923785;29;19922;-86
2021/01/16 08:38:17;;;;;;;;;;;;;;;-4.64;84.67;98650.56;4940702;29;19926;-77
2021/01/16 08:41:08;;;;;;;;;;;;;;;-4.77;83.36;98653.03;4939359;29;19926;-84
2021/01/16 08:43:37;;;;;;;;;;;;;;;-4.66;83.02;98657.91;4932274;29;19925;-85
2021/01/16 08:46:08;;;;;;;;;;;;;;;-4.76;82.87;98656.53;4911110;29;19919;-84
2021/01/16 08:48:34;;;;;;;;;;;;;;;-4.47;83.41;98657.38;4932659;29;20304;-77
2021/01/16 08:50:59;;;;;;;;;;;;;;;-4.44;82.88;98666.88;4936680;29;19915;-86
2021/01/16 08:53:24;;;;;;;;;;;;;;;-4.58;82.19;98673.88;4922362;29;20029;-83
2021/01/16 08:55:50;;;;;;;;;;;;;;;-4.26;81.29;98669.19;4915749;29;20357;-84
2021/01/16 08:58:15;;;;;;;;;;;;;;;-4.42;81.71;98672.88;4914367;29;20440;-84
2021/01/16 09:00:41;;;;;;;;;;;;;;;-4.25;81.67;98674.34;4910802;29;19923;-83
2021/01/16 09:03:11;;;;;;;;;;;;;;;-4.23;81.57;98677.69;4915338;29;19942;-85
2021/01/16 09:05:37;;;;;;;;;;;;;;;-4.61;82.05;98679.56;4910050;29;19922;-86
2021/01/16 09:08:16;;;;;;;;;;;;;;;-4.60;82.47;98678.53;4911215;29;19915;-84
2021/01/16 09:10:41;;;;;;;;;;;;;;;-4.62;83.23;98680.56;4908486;29;19941;-85
2021/01/16 09:13:22;;;;;;;;;;;;;;;-4.56;83.28;98679.00;4912012;29;20277;-85
2021/01/16 09:15:48;;;;;;;;;;;;;;;-4.39;82.38;98681.34;4909622;29;19947;-85
2021/01/16 09:18:37;;;;;;;;;;;;;;;-4.27;82.59;98683.56;4910999;29;19923;-83
2021/01/16 09:21:03;;;;;;;;;;;;;;;-4.35;82.56;98687.97;4912392;29;19918;-80
2021/01/16 09:23:30;;;;;;;;;;;;;;;-4.15;82.22;98682.91;4905636;29;19919;-83
2021/01/16 09:25:59;;;;;;;;;;;;;;;-3.99;81.66;98687.22;4916391;29;19915;-86
2021/01/16 09:28:42;;;;;;;;;;;;;;;-3.72;80.54;98696.41;4921124;29;19938;-86
2021/01/16 09:31:19;;;;;;;;;;;;;;;-3.81;80.79;98695.69;4934651;29;19914;-86
2021/01/16 09:33:45;;;;;;;;;;;;;;;-3.58;80.04;98691.06;4930783;29;19914;-87
2021/01/16 09:38:43;;;;;;;;;;;;;;;-3.46;78.03;98678.84;4937574;29;19930;-87
2021/01/16 09:41:09;;;;;;;;;;;;;;;-3.29;77.53;98688.28;4936890;29;19942;-88
2021/01/16 09:43:42;;;;;;;;;;;;;;;-2.91;76.61;98677.34;4918823;29;19922;-89
2021/01/16 09:46:09;;;;;;;;;;;;;;;-2.88;75.67;98674.31;4925093;29;19915;-89
2021/01/16 09:48:41;;;;;;;;;;;;;;;-2.52;74.78;98672.34;4912571;29;19961;-86
2021/01/16 09:51:13;;;;;;;;;;;;;;;-2.46;74.80;98671.56;4927377;29;19922;-88
2021/01/16 09:53:40;;;;;;;;;;;;;;;-1.49;72.12;98658.88;4909028;29;19919;-85
2021/01/16 09:56:06;;;;;;;;;;;;;;;0.05;67.73;98663.09;4915093;29;19922;-88
2021/01/16 09:58:42;;;;;;;;;;;;;;;0.06;65.12;98659.38;4905101;29;19922;-90
2021/01/16 10:01:29;;;;;;;;;;;;;;;-1.19;68.19;98660.19;4905641;29;19915;-83
2021/01/16 10:04:02;;;;;;;;;;;;;;;-1.19;69.04;98665.56;4913430;29;20013;-88
2021/01/16 10:06:35;;;;;;;;;;;;;;;-0.25;65.48;98663.53;4912048;29;20428;-89
2021/01/16 10:09:02;;;;;;;;;;;;;;;-0.48;65.81;98662.34;4916556;29;19943;-83
2021/01/16 10:11:42;;;;;;;;;;;;;;;-0.32;65.33;98660.06;4904643;29;19922;-84
2021/01/16 10:14:18;;;;;;;;;;;;;;;-0.38;64.86;98660.91;4928089;29;20092;-90
2021/01/16 10:16:47;;;;;;;;;;;;;;;0.02;64.60;98655.44;4914699;29;19931;-86
2021/01/16 10:19:13;;;;;;;;;;;;;;;-0.23;65.33;98647.22;4910591;29;20337;-87
2021/01/16 10:22:08;;;;;;;;;;;;;;;-0.82;66.87;98644.56;4908068;29;19915;-83
2021/01/16 10:24:43;;;;;;;;;;;;;;;0.26;63.73;98641.28;4903437;29;19911;-89
2021/01/16 10:27:09;;;;;;;;;;;;;;;0.20;63.72;98644.84;4910044;29;19958;-86
2021/01/16 10:29:38;;;;;;;;;;;;;;;0.63;62.94;98642.41;4935416;29;19926;-83
2021/01/16 10:32:24;;;;;;;;;;;;;;;0.21;64.74;98631.19;4927430;29;19919;-86
2021/01/16 10:34:52;;;;;;;;;;;;;;;0.71;63.19;98616.03;4922571;29;19932;-82
2021/01/16 10:37:18;;;;;;;;;;;;;;;0.48;63.44;98618.44;4922608;29;19939;-83
2021/01/16 10:39:56;;;;;;;;;;;;;;;1.24;61.38;98618.38;4915428;29;19919;-85
2021/01/16 10:47:33;;;;;;;;;;;;;;;1.26;59.05;98614.41;5350542;23;19907;-87
2021/01/16 10:52:37;;;;;;;;;;;;;;;1.12;61.00;98601.28;5008057;23;19907;-82
2021/01/16 10:58:00;;;;;;;;;;;;;;;1.03;61.74;98593.44;5495286;23;19927;-85
2021/01/16 11:08:55;;;;;;;;;;;;;;;1.24;62.29;98583.34;5343927;23;19907;-86
2021/01/16 11:11:45;;;;;;;;;;;;;;;1.14;61.72;98574.94;4941329;29;19922;-82
2021/01/16 11:14:29;;;;;;;;;;;;;;;1.17;62.43;98569.09;5292693;23;19931;-90
2021/01/16 11:20:16;;;;;;;;;;;;;;;1.25;61.70;98566.97;4912871;29;19927;-87
2021/01/16 11:23:11;;;;;;;;;;;;;;;1.03;62.93;98554.94;4898867;29;19911;-85
2021/01/16 11:28:52;;;;;;;;;;;;;;;0.84;63.67;98545.16;5370722;23;19914;-85
2021/01/16 11:42:13;;;;;;;;;;;;;;;1.14;63.70;98512.97;4974109;23;19942;-84
2021/01/16 11:45:03;;;;;;;;;;;;;;;0.64;64.78;98512.97;4923721;29;19923;-88
2021/01/16 11:47:31;;;;;;;;;;;;;;;0.19;65.68;98508.72;5412383;23;19923;-85
2021/01/16 11:49:59;;;;;;;;;;;;;;;-0.02;67.06;98501.78;4943599;28;19907;-84
2021/01/16 12:10:32;;;;;;;;;;;;;;;-0.10;69.45;98467.94;5031605;23;19922;-87
2021/01/16 12:13:09;;;;;;;;;;;;;;;-0.06;69.01;98463.75;4957520;29;19974;-85
2021/01/16 12:15:34;;;;;;;;;;;;;;;0.00;68.61;98456.72;4939678;29;19929;-87
2021/01/16 12:18:00;;;;;;;;;;;;;;;-0.11;69.02;98455.53;4955740;28;19990;-87
2021/01/16 12:20:26;;;;;;;;;;;;;;;-0.43;70.31;98456.50;4952837;29;19919;-85
2021/01/16 12:22:55;;;;;;;;;;;;;;;-0.48;70.86;98447.44;4935729;29;19922;-86
2021/01/16 12:25:21;;;;;;;;;;;;;;;-0.32;70.74;98446.94;4935689;28;19907;-87
2021/01/16 12:27:48;;;;;;;;;;;;;;;-0.39;70.45;98452.34;4941614;29;19919;-87
2021/01/16 12:30:14;;;;;;;;;;;;;;;-0.34;69.91;98449.84;4936623;29;19962;-86
2021/01/16 12:32:39;;;;;;;;;;;;;;;-0.18;69.58;98441.28;4941912;28;19918;-83
2021/01/16 12:35:05;;;;;;;;;;;;;;;0.05;68.64;98442.63;4941926;28;19915;-86
2021/01/16 12:37:35;;;;;;;;;;;;;;;-0.11;68.72;98439.41;4943252;28;19903;-86
2021/01/16 12:42:35;;;;;;;;;;;;;;;-0.20;69.56;98429.94;5070705;23;19907;-85
2021/01/16 12:45:03;;;;;;;;;;;;;;;-0.04;69.02;98434.81;4940363;29;19973;-84
2021/01/16 12:47:28;;;;;;;;;;;;;;;0.03;68.94;98432.09;4940577;28;19913;-83
2021/01/16 12:49:54;;;;;;;;;;;;;;;-0.22;68.57;98431.19;4942607;29;19938;-86
2021/01/16 12:52:24;;;;;;;;;;;;;;;-0.34;69.01;98427.50;4944119;29;19903;-85
2021/01/16 12:54:58;;;;;;;;;;;;;;;-0.22;67.62;98423.13;4941996;29;19996;-87
2021/01/16 12:57:34;;;;;;;;;;;;;;;-0.18;68.04;98417.09;4945099;29;19907;-87
2021/01/16 13:00:02;;;;;;;;;;;;;;;-0.29;68.50;98412.41;4945797;28;19913;-83
2021/01/16 13:02:28;;;;;;;;;;;;;;;-0.35;68.97;98413.28;4945442;28;19903;-85
2021/01/16 13:04:54;;;;;;;;;;;;;;;-0.47;68.67;98409.59;4943235;29;19903;-87
2021/01/16 13:07:21;;;;;;;;;;;;;;;-0.37;67.90;98403.75;4944326;28;19965;-87
2021/01/16 13:09:46;;;;;;;;;;;;;;;-0.29;67.54;98398.16;4962481;28;19915;-87
2021/01/16 13:12:13;;;;;;;;;;;;;;;-0.23;67.45;98403.50;4962043;28;19909;-85
2021/01/16 13:14:52;;;;;;;;;;;;;;;-0.24;67.29;98388.41;4962245;28;19923;-86
2021/01/16 13:17:18;;;;;;;;;;;;;;;-0.23;66.99;98399.97;4946465;28;19922;-85
2021/01/16 13:19:45;;;;;;;;;;;;;;;-0.40;66.60;98399.66;4945972;28;19935;-85
2021/01/16 13:22:23;;;;;;;;;;;;;;;-0.30;66.27;98397.31;4961693;28;19903;-85
2021/01/16 13:25:18;;;;;;;;;;;;;;;-0.10;66.00;98397.22;4945369;28;19902;-82
2021/01/16 13:27:44;;;;;;;;;;;;;;;-0.05;66.23;98379.41;4934150;28;19903;-84
2021/01/16 13:30:20;;;;;;;;;;;;;;;0.00;65.68;98395.69;4944551;28;19909;-86
2021/01/16 13:32:46;;;;;;;;;;;;;;;0.00;65.06;98393.00;4943992;28;19937;-81
2021/01/16 13:35:12;;;;;;;;;;;;;;;-0.04;65.55;98397.19;4958880;28;19919;-85
2021/01/16 13:37:38;;;;;;;;;;;;;;;-0.18;65.27;98384.03;4937934;29;19915;-83
2021/01/16 13:40:25;;;;;;;;;;;;;;;-0.23;66.22;98387.38;4926373;29;20011;-87
2021/01/16 13:43:01;;;;;;;;;;;;;;;-0.01;66.52;98387.84;4921880;28;19930;-88
2021/01/16 13:45:26;;;;;;;;;;;;;;;-0.01;65.77;98375.25;4924681;29;19903;-85
2021/01/16 13:50:48;;;;;;;;;;;;;;;-0.09;65.66;98372.78;5222496;23;7176974;-88
2021/01/16 13:56:09;;;;;;;;;;;;;;;-0.05;65.55;98368.63;4924790;29;19934;-90
2021/01/16 13:58:41;;;;;;;;;;;;;;;-0.10;65.85;98360.41;4910952;29;19918;-86
2021/01/16 14:01:07;;;;;;;;;;;;;;;-0.04;66.06;98364.09;4910544;29;19957;-88
2021/01/16 14:03:32;;;;;;;;;;;;;;;0.03;66.12;98364.06;4912312;29;19915;-86
2021/01/16 14:05:58;;;;;;;;;;;;;;;0.10;65.87;98362.94;4913973;29;19983;-88
2021/01/16 14:08:23;;;;;;;;;;;;;;;0.10;65.91;98362.09;4906725;29;19915;-87
2021/01/16 14:10:57;;;;;;;;;;;;;;;0.11;65.88;98361.06;4916479;29;19935;-85